sensor_id;sensor_type;location;lat;lon;timestamp;temperature;humidity
15900;DHT22;8048;50.644;6.184;2023-08-06T00:00:07;13.40;99.90
15900;DHT22;8048;50.644;6.184;2023-08-06T00:02:33;13.40;99.90
15900;DHT22;8048;50.644;6.184;2023-08-06T00:04:59;13.40;99.90
15900;DHT22;8048;50.644;6.184;2023-08-06T00:07:25;13.40;99.90
15900;DHT22;8048;50.644;6.184;2023-08-06T00:09:50;13.30;99.90
15900;DHT22;8048;50.644;6.184;2023-08-06T00:12:15;13.30;99.90
15900;DHT22;8048;50.644;6.184;2023-08-06T00:14:41;13.30;99.90
15900;DHT22;8048;50.644;6.184;2023-08-06T00:17:07;13.30;99.90
15900;DHT22;8048;50.644;6.184;2023-08-06T00:19:33;13.20;99.90
15900;DHT22;8048;50.644;6.184;2023-08-06T00:21:58;13.20;99.90
15900;DHT22;8048;50.644;6.184;2023-08-06T00:24:24;13.20;99.90
15900;DHT22;8048;50.644;6.184;2023-08-06T00:26:50;13.20;99.90
15900;DHT22;8048;50.644;6.184;2023-08-06T00:29:15;13.10;99.90
15900;DHT22;8048;50.644;6.184;2023-08-06T00:31:41;13.10;99.90
15900;DHT22;8048;50.644;6.184;2023-08-06T00:34:06;13.10;99.90
15900;DHT22;8048;50.644;6.184;2023-08-06T00:36:32;13.10;99.90
15900;DHT22;8048;50.644;6.184;2023-08-06T00:38:57;13.10;99.90
15900;DHT22;8048;50.644;6.184;2023-08-06T00:41:23;13.10;99.90
15900;DHT22;8048;50.644;6.184;2023-08-06T00:43:48;13.10;99.90
15900;DHT22;8048;50.644;6.184;2023-08-06T00:46:14;13.00;99.90
15900;DHT22;8048;50.644;6.184;2023-08-06T00:48:41;13.00;99.90
15900;DHT22;8048;50.644;6.184;2023-08-06T00:51:08;12.90;99.90
15900;DHT22;8048;50.644;6.184;2023-08-06T00:53:34;13.00;99.90
15900;DHT22;8048;50.644;6.184;2023-08-06T00:56:00;12.90;99.90
15900;DHT22;8048;50.644;6.184;2023-08-06T00:58:26;12.90;99.90
15900;DHT22;8048;50.644;6.184;2023-08-06T01:00:51;12.90;99.90
15900;DHT22;8048;50.644;6.184;2023-08-06T01:03:17;12.90;99.90
15900;DHT22;8048;50.644;6.184;2023-08-06T01:05:42;12.90;99.90
15900;DHT22;8048;50.644;6.184;2023-08-06T01:09:01;12.90;99.90
15900;DHT22;8048;50.644;6.184;2023-08-06T01:14:15;12.90;99.90
15900;DHT22;8048;50.644;6.184;2023-08-06T01:16:39;13.00;99.90
15900;DHT22;8048;50.644;6.184;2023-08-06T01:19:16;13.00;99.90
15900;DHT22;8048;50.644;6.184;2023-08-06T01:21:41;13.00;99.90
15900;DHT22;8048;50.644;6.184;2023-08-06T01:24:07;13.00;99.90
15900;DHT22;8048;50.644;6.184;2023-08-06T01:31:33;13.10;99.90
15900;DHT22;8048;50.644;6.184;2023-08-06T01:34:01;13.10;99.90
15900;DHT22;8048;50.644;6.184;2023-08-06T01:36:28;13.10;99.90
15900;DHT22;8048;50.644;6.184;2023-08-06T01:38:55;13.10;99.90
15900;DHT22;8048;50.644;6.184;2023-08-06T01:41:22;13.10;99.90
15900;DHT22;8048;50.644;6.184;2023-08-06T01:43:48;13.10;99.90
15900;DHT22;8048;50.644;6.184;2023-08-06T01:46:13;13.20;99.90
15900;DHT22;8048;50.644;6.184;2023-08-06T01:48:39;13.20;99.90
15900;DHT22;8048;50.644;6.184;2023-08-06T01:51:05;13.20;99.90
15900;DHT22;8048;50.644;6.184;2023-08-06T01:53:33;13.20;99.90
15900;DHT22;8048;50.644;6.184;2023-08-06T01:55:59;13.20;99.90
15900;DHT22;8048;50.644;6.184;2023-08-06T01:58:25;13.20;99.90
15900;DHT22;8048;50.644;6.184;2023-08-06T02:00:50;13.20;99.90
15900;DHT22;8048;50.644;6.184;2023-08-06T02:03:16;13.20;99.90
15900;DHT22;8048;50.644;6.184;2023-08-06T02:05:41;13.30;99.90
15900;DHT22;8048;50.644;6.184;2023-08-06T02:08:07;13.20;99.90
15900;DHT22;8048;50.644;6.184;2023-08-06T02:10:33;13.20;99.90
15900;DHT22;8048;50.644;6.184;2023-08-06T02:12:58;13.30;99.90
15900;DHT22;8048;50.644;6.184;2023-08-06T02:15:24;13.30;99.90
15900;DHT22;8048;50.644;6.184;2023-08-06T02:17:49;13.30;99.90
15900;DHT22;8048;50.644;6.184;2023-08-06T02:20:15;13.30;99.90
15900;DHT22;8048;50.644;6.184;2023-08-06T02:22:40;13.30;99.90
15900;DHT22;8048;50.644;6.184;2023-08-06T02:25:06;13.30;99.90
15900;DHT22;8048;50.644;6.184;2023-08-06T02:27:32;13.40;99.90
15900;DHT22;8048;50.644;6.184;2023-08-06T02:29:57;13.40;99.90
15900;DHT22;8048;50.644;6.184;2023-08-06T02:32:23;13.40;99.90
15900;DHT22;8048;50.644;6.184;2023-08-06T02:34:48;13.40;99.90
15900;DHT22;8048;50.644;6.184;2023-08-06T02:37:14;13.40;99.90
15900;DHT22;8048;50.644;6.184;2023-08-06T02:39:39;13.40;99.90
15900;DHT22;8048;50.644;6.184;2023-08-06T02:42:08;13.40;99.90
15900;DHT22;8048;50.644;6.184;2023-08-06T02:44:34;13.30;99.90
15900;DHT22;8048;50.644;6.184;2023-08-06T02:47:01;13.40;99.90
15900;DHT22;8048;50.644;6.184;2023-08-06T02:49:26;13.40;99.90
15900;DHT22;8048;50.644;6.184;2023-08-06T02:51:52;13.40;99.90
15900;DHT22;8048;50.644;6.184;2023-08-06T02:54:20;13.40;99.90
15900;DHT22;8048;50.644;6.184;2023-08-06T02:56:46;13.40;99.90
15900;DHT22;8048;50.644;6.184;2023-08-06T02:59:12;13.40;99.90
15900;DHT22;8048;50.644;6.184;2023-08-06T03:01:38;13.40;99.90
15900;DHT22;8048;50.644;6.184;2023-08-06T03:04:04;13.40;99.90
15900;DHT22;8048;50.644;6.184;2023-08-06T03:06:29;13.40;99.90
15900;DHT22;8048;50.644;6.184;2023-08-06T03:08:55;13.40;99.90
15900;DHT22;8048;50.644;6.184;2023-08-06T03:11:20;13.50;99.90
15900;DHT22;8048;50.644;6.184;2023-08-06T03:13:47;13.50;99.90
15900;DHT22;8048;50.644;6.184;2023-08-06T03:16:13;13.50;99.90
15900;DHT22;8048;50.644;6.184;2023-08-06T03:18:38;13.50;99.90
15900;DHT22;8048;50.644;6.184;2023-08-06T03:21:04;13.50;99.90
15900;DHT22;8048;50.644;6.184;2023-08-06T03:23:29;13.50;99.90
15900;DHT22;8048;50.644;6.184;2023-08-06T03:25:55;13.50;99.90
15900;DHT22;8048;50.644;6.184;2023-08-06T03:28:20;13.50;99.90
15900;DHT22;8048;50.644;6.184;2023-08-06T03:30:47;13.50;99.90
15900;DHT22;8048;50.644;6.184;2023-08-06T03:33:13;13.50;99.90
15900;DHT22;8048;50.644;6.184;2023-08-06T03:35:39;13.50;99.90
15900;DHT22;8048;50.644;6.184;2023-08-06T03:38:04;13.50;99.90
15900;DHT22;8048;50.644;6.184;2023-08-06T03:40:30;13.50;99.90
15900;DHT22;8048;50.644;6.184;2023-08-06T03:42:55;13.60;99.90
15900;DHT22;8048;50.644;6.184;2023-08-06T03:45:21;13.60;99.90
15900;DHT22;8048;50.644;6.184;2023-08-06T03:47:46;13.60;99.90
15900;DHT22;8048;50.644;6.184;2023-08-06T03:50:12;13.50;99.90
15900;DHT22;8048;50.644;6.184;2023-08-06T03:52:37;13.60;99.90
15900;DHT22;8048;50.644;6.184;2023-08-06T03:55:03;13.60;99.90
15900;DHT22;8048;50.644;6.184;2023-08-06T03:57:29;13.70;99.90
15900;DHT22;8048;50.644;6.184;2023-08-06T03:59:54;13.60;99.90
15900;DHT22;8048;50.644;6.184;2023-08-06T04:02:20;13.60;99.90
15900;DHT22;8048;50.644;6.184;2023-08-06T04:04:45;13.50;99.90
15900;DHT22;8048;50.644;6.184;2023-08-06T04:07:11;13.60;99.90
15900;DHT22;8048;50.644;6.184;2023-08-06T04:09:58;13.60;99.90
15900;DHT22;8048;50.644;6.184;2023-08-06T04:12:24;13.60;99.90
15900;DHT22;8048;50.644;6.184;2023-08-06T04:14:50;13.70;99.90
15900;DHT22;8048;50.644;6.184;2023-08-06T04:17:17;13.70;99.90
15900;DHT22;8048;50.644;6.184;2023-08-06T04:19:52;13.70;99.90
15900;DHT22;8048;50.644;6.184;2023-08-06T04:22:18;13.70;99.90
15900;DHT22;8048;50.644;6.184;2023-08-06T04:24:44;13.70;99.90
15900;DHT22;8048;50.644;6.184;2023-08-06T04:27:10;13.70;99.90
15900;DHT22;8048;50.644;6.184;2023-08-06T04:29:36;13.60;99.90
15900;DHT22;8048;50.644;6.184;2023-08-06T04:32:03;13.60;99.90
15900;DHT22;8048;50.644;6.184;2023-08-06T04:34:29;13.60;99.90
15900;DHT22;8048;50.644;6.184;2023-08-06T04:36:54;13.60;99.90
15900;DHT22;8048;50.644;6.184;2023-08-06T04:39:20;13.60;99.90
15900;DHT22;8048;50.644;6.184;2023-08-06T04:41:45;13.50;99.90
15900;DHT22;8048;50.644;6.184;2023-08-06T04:44:11;13.50;99.90
15900;DHT22;8048;50.644;6.184;2023-08-06T04:46:36;13.50;99.90
15900;DHT22;8048;50.644;6.184;2023-08-06T04:49:02;13.50;99.90
15900;DHT22;8048;50.644;6.184;2023-08-06T04:51:27;13.50;99.90
15900;DHT22;8048;50.644;6.184;2023-08-06T04:53:53;13.60;99.90
15900;DHT22;8048;50.644;6.184;2023-08-06T04:56:18;13.50;99.90
15900;DHT22;8048;50.644;6.184;2023-08-06T04:58:44;13.60;99.90
15900;DHT22;8048;50.644;6.184;2023-08-06T05:01:09;13.60;99.90
15900;DHT22;8048;50.644;6.184;2023-08-06T05:03:35;13.60;99.90
15900;DHT22;8048;50.644;6.184;2023-08-06T05:06:00;13.50;99.90
15900;DHT22;8048;50.644;6.184;2023-08-06T05:08:26;13.50;99.90
15900;DHT22;8048;50.644;6.184;2023-08-06T05:10:51;13.50;99.90
15900;DHT22;8048;50.644;6.184;2023-08-06T05:13:17;13.50;99.90
15900;DHT22;8048;50.644;6.184;2023-08-06T05:15:42;13.60;99.90
15900;DHT22;8048;50.644;6.184;2023-08-06T05:18:10;13.60;99.90
15900;DHT22;8048;50.644;6.184;2023-08-06T05:20:37;13.60;99.90
15900;DHT22;8048;50.644;6.184;2023-08-06T05:23:03;13.60;99.90
15900;DHT22;8048;50.644;6.184;2023-08-06T05:25:29;13.60;99.90
15900;DHT22;8048;50.644;6.184;2023-08-06T05:27:54;13.60;99.90
15900;DHT22;8048;50.644;6.184;2023-08-06T05:30:20;13.60;99.90
15900;DHT22;8048;50.644;6.184;2023-08-06T05:32:45;13.70;99.90
15900;DHT22;8048;50.644;6.184;2023-08-06T05:35:11;13.70;99.90
15900;DHT22;8048;50.644;6.184;2023-08-06T05:37:36;13.70;99.90
15900;DHT22;8048;50.644;6.184;2023-08-06T05:40:02;13.70;99.90
15900;DHT22;8048;50.644;6.184;2023-08-06T05:42:29;13.70;99.90
15900;DHT22;8048;50.644;6.184;2023-08-06T05:44:55;13.70;99.90
15900;DHT22;8048;50.644;6.184;2023-08-06T05:47:20;13.70;99.90
15900;DHT22;8048;50.644;6.184;2023-08-06T05:49:46;13.70;99.90
15900;DHT22;8048;50.644;6.184;2023-08-06T05:52:11;13.70;99.90
15900;DHT22;8048;50.644;6.184;2023-08-06T05:54:37;13.70;99.90
15900;DHT22;8048;50.644;6.184;2023-08-06T05:57:03;13.70;99.90
15900;DHT22;8048;50.644;6.184;2023-08-06T05:59:28;13.70;99.90
15900;DHT22;8048;50.644;6.184;2023-08-06T06:01:54;13.70;99.90
15900;DHT22;8048;50.644;6.184;2023-08-06T06:04:20;13.70;99.90
15900;DHT22;8048;50.644;6.184;2023-08-06T06:06:45;13.80;99.90
15900;DHT22;8048;50.644;6.184;2023-08-06T06:09:11;13.80;99.90
15900;DHT22;8048;50.644;6.184;2023-08-06T06:11:36;13.90;99.90
15900;DHT22;8048;50.644;6.184;2023-08-06T06:14:02;13.90;99.90
15900;DHT22;8048;50.644;6.184;2023-08-06T06:16:27;13.90;99.90
15900;DHT22;8048;50.644;6.184;2023-08-06T06:18:53;13.90;99.90
15900;DHT22;8048;50.644;6.184;2023-08-06T06:21:20;13.90;99.90
15900;DHT22;8048;50.644;6.184;2023-08-06T06:23:45;14.00;99.90
15900;DHT22;8048;50.644;6.184;2023-08-06T06:26:11;14.10;99.90
15900;DHT22;8048;50.644;6.184;2023-08-06T06:28:36;14.00;99.90
15900;DHT22;8048;50.644;6.184;2023-08-06T06:31:02;14.10;99.90
15900;DHT22;8048;50.644;6.184;2023-08-06T06:33:28;14.00;99.90
15900;DHT22;8048;50.644;6.184;2023-08-06T06:35:54;14.00;99.90
15900;DHT22;8048;50.644;6.184;2023-08-06T06:38:19;14.10;99.90
15900;DHT22;8048;50.644;6.184;2023-08-06T06:40:54;14.10;99.90
15900;DHT22;8048;50.644;6.184;2023-08-06T06:43:19;14.10;99.90
15900;DHT22;8048;50.644;6.184;2023-08-06T06:45:45;14.20;99.90
15900;DHT22;8048;50.644;6.184;2023-08-06T06:48:10;14.30;99.90
15900;DHT22;8048;50.644;6.184;2023-08-06T06:50:36;14.30;99.90
15900;DHT22;8048;50.644;6.184;2023-08-06T06:53:01;14.30;99.90
15900;DHT22;8048;50.644;6.184;2023-08-06T06:55:27;14.30;99.90
15900;DHT22;8048;50.644;6.184;2023-08-06T06:57:53;14.40;99.90
15900;DHT22;8048;50.644;6.184;2023-08-06T07:00:18;14.40;99.90
15900;DHT22;8048;50.644;6.184;2023-08-06T07:02:44;14.40;99.90
15900;DHT22;8048;50.644;6.184;2023-08-06T07:05:09;14.50;99.90
15900;DHT22;8048;50.644;6.184;2023-08-06T07:07:35;14.50;99.90
15900;DHT22;8048;50.644;6.184;2023-08-06T07:10:02;14.60;99.90
15900;DHT22;8048;50.644;6.184;2023-08-06T07:12:27;14.60;99.90
15900;DHT22;8048;50.644;6.184;2023-08-06T07:14:53;14.60;99.90
15900;DHT22;8048;50.644;6.184;2023-08-06T07:17:18;14.60;99.90
15900;DHT22;8048;50.644;6.184;2023-08-06T07:19:44;14.60;99.90
15900;DHT22;8048;50.644;6.184;2023-08-06T07:22:09;14.70;99.90
15900;DHT22;8048;50.644;6.184;2023-08-06T07:24:35;14.70;99.90
15900;DHT22;8048;50.644;6.184;2023-08-06T07:27:00;14.70;99.90
15900;DHT22;8048;50.644;6.184;2023-08-06T07:29:26;14.70;99.90
15900;DHT22;8048;50.644;6.184;2023-08-06T07:31:52;14.70;99.90
15900;DHT22;8048;50.644;6.184;2023-08-06T07:34:17;14.80;99.90
15900;DHT22;8048;50.644;6.184;2023-08-06T07:36:44;14.80;99.90
15900;DHT22;8048;50.644;6.184;2023-08-06T07:39:10;14.80;99.90
15900;DHT22;8048;50.644;6.184;2023-08-06T07:41:36;14.80;99.90
15900;DHT22;8048;50.644;6.184;2023-08-06T07:44:01;14.70;99.90
15900;DHT22;8048;50.644;6.184;2023-08-06T07:46:27;14.70;99.90
15900;DHT22;8048;50.644;6.184;2023-08-06T07:48:52;14.60;99.90
15900;DHT22;8048;50.644;6.184;2023-08-06T07:51:18;14.60;99.90
15900;DHT22;8048;50.644;6.184;2023-08-06T07:53:44;14.60;99.90
15900;DHT22;8048;50.644;6.184;2023-08-06T07:56:10;14.50;99.90
15900;DHT22;8048;50.644;6.184;2023-08-06T07:58:36;14.50;99.90
15900;DHT22;8048;50.644;6.184;2023-08-06T08:01:01;14.40;99.90
15900;DHT22;8048;50.644;6.184;2023-08-06T08:03:27;14.40;99.90
15900;DHT22;8048;50.644;6.184;2023-08-06T08:05:55;14.30;99.90
15900;DHT22;8048;50.644;6.184;2023-08-06T08:08:23;14.20;99.90
15900;DHT22;8048;50.644;6.184;2023-08-06T08:10:48;14.20;99.90
15900;DHT22;8048;50.644;6.184;2023-08-06T08:13:14;14.00;99.90
15900;DHT22;8048;50.644;6.184;2023-08-06T08:15:39;14.00;99.90
15900;DHT22;8048;50.644;6.184;2023-08-06T08:18:05;14.00;99.90
15900;DHT22;8048;50.644;6.184;2023-08-06T08:20:31;14.00;99.90
15900;DHT22;8048;50.644;6.184;2023-08-06T08:23:00;14.00;99.90
15900;DHT22;8048;50.644;6.184;2023-08-06T08:25:27;14.00;99.90
15900;DHT22;8048;50.644;6.184;2023-08-06T08:27:53;14.00;99.90
15900;DHT22;8048;50.644;6.184;2023-08-06T08:30:19;14.00;99.90
15900;DHT22;8048;50.644;6.184;2023-08-06T08:32:44;14.00;99.90
15900;DHT22;8048;50.644;6.184;2023-08-06T08:35:10;14.00;99.90
15900;DHT22;8048;50.644;6.184;2023-08-06T08:37:38;14.00;99.90
15900;DHT22;8048;50.644;6.184;2023-08-06T08:40:05;13.90;99.90
15900;DHT22;8048;50.644;6.184;2023-08-06T08:42:31;14.00;99.90
15900;DHT22;8048;50.644;6.184;2023-08-06T08:44:56;13.90;99.90
15900;DHT22;8048;50.644;6.184;2023-08-06T08:47:22;13.90;99.90
15900;DHT22;8048;50.644;6.184;2023-08-06T08:49:52;13.90;99.90
15900;DHT22;8048;50.644;6.184;2023-08-06T08:52:19;13.90;99.90
15900;DHT22;8048;50.644;6.184;2023-08-06T08:54:46;13.90;99.90
15900;DHT22;8048;50.644;6.184;2023-08-06T08:57:12;13.80;99.90
15900;DHT22;8048;50.644;6.184;2023-08-06T08:59:37;13.80;99.90
15900;DHT22;8048;50.644;6.184;2023-08-06T09:02:03;13.70;99.90
15900;DHT22;8048;50.644;6.184;2023-08-06T09:04:30;13.70;99.90
15900;DHT22;8048;50.644;6.184;2023-08-06T09:06:59;13.60;99.90
15900;DHT22;8048;50.644;6.184;2023-08-06T09:09:34;13.60;99.90
15900;DHT22;8048;50.644;6.184;2023-08-06T09:12:09;13.60;99.90
15900;DHT22;8048;50.644;6.184;2023-08-06T09:14:36;13.70;99.90
15900;DHT22;8048;50.644;6.184;2023-08-06T09:17:02;13.70;99.90
15900;DHT22;8048;50.644;6.184;2023-08-06T09:19:27;13.80;99.90
15900;DHT22;8048;50.644;6.184;2023-08-06T09:21:55;13.80;99.90
15900;DHT22;8048;50.644;6.184;2023-08-06T09:24:21;13.80;99.90
15900;DHT22;8048;50.644;6.184;2023-08-06T09:26:47;13.70;99.90
15900;DHT22;8048;50.644;6.184;2023-08-06T09:29:13;13.80;99.90
15900;DHT22;8048;50.644;6.184;2023-08-06T09:31:47;13.70;99.90
15900;DHT22;8048;50.644;6.184;2023-08-06T09:34:17;13.70;99.90
15900;DHT22;8048;50.644;6.184;2023-08-06T09:36:47;13.70;99.90
15900;DHT22;8048;50.644;6.184;2023-08-06T09:39:17;13.80;99.90
15900;DHT22;8048;50.644;6.184;2023-08-06T09:41:43;13.90;99.90
15900;DHT22;8048;50.644;6.184;2023-08-06T09:44:19;14.00;99.90
15900;DHT22;8048;50.644;6.184;2023-08-06T09:46:52;14.00;99.90
15900;DHT22;8048;50.644;6.184;2023-08-06T09:49:19;14.10;99.90
15900;DHT22;8048;50.644;6.184;2023-08-06T09:51:46;14.10;99.90
15900;DHT22;8048;50.644;6.184;2023-08-06T09:54:15;14.10;99.90
15900;DHT22;8048;50.644;6.184;2023-08-06T09:56:42;14.00;99.90
15900;DHT22;8048;50.644;6.184;2023-08-06T09:59:08;14.00;99.90
15900;DHT22;8048;50.644;6.184;2023-08-06T10:01:34;14.00;99.90
15900;DHT22;8048;50.644;6.184;2023-08-06T10:04:05;14.10;99.90
15900;DHT22;8048;50.644;6.184;2023-08-06T10:06:34;14.10;99.90
15900;DHT22;8048;50.644;6.184;2023-08-06T10:09:01;14.10;99.90
15900;DHT22;8048;50.644;6.184;2023-08-06T10:11:33;14.10;99.90
15900;DHT22;8048;50.644;6.184;2023-08-06T10:14:10;14.10;99.90
15900;DHT22;8048;50.644;6.184;2023-08-06T10:16:39;14.10;99.90
15900;DHT22;8048;50.644;6.184;2023-08-06T10:19:05;14.00;99.90
15900;DHT22;8048;50.644;6.184;2023-08-06T10:21:32;14.00;99.90
15900;DHT22;8048;50.644;6.184;2023-08-06T10:23:58;14.10;99.90
15900;DHT22;8048;50.644;6.184;2023-08-06T10:26:28;14.10;99.90
15900;DHT22;8048;50.644;6.184;2023-08-06T10:28:54;14.20;99.90
15900;DHT22;8048;50.644;6.184;2023-08-06T10:31:46;14.20;99.90
15900;DHT22;8048;50.644;6.184;2023-08-06T10:34:06;14.20;99.90
15900;DHT22;8048;50.644;6.184;2023-08-06T10:36:32;14.20;99.90
15900;DHT22;8048;50.644;6.184;2023-08-06T10:38:58;14.20;99.90
15900;DHT22;8048;50.644;6.184;2023-08-06T10:41:30;14.20;99.90
15900;DHT22;8048;50.644;6.184;2023-08-06T10:44:09;14.30;99.90
15900;DHT22;8048;50.644;6.184;2023-08-06T10:46:36;14.30;99.90
15900;DHT22;8048;50.644;6.184;2023-08-06T10:49:03;14.40;99.90
15900;DHT22;8048;50.644;6.184;2023-08-06T10:51:28;14.50;99.90
15900;DHT22;8048;50.644;6.184;2023-08-06T10:53:54;14.50;99.90
15900;DHT22;8048;50.644;6.184;2023-08-06T10:56:24;14.50;99.90
15900;DHT22;8048;50.644;6.184;2023-08-06T10:58:53;14.40;99.90
15900;DHT22;8048;50.644;6.184;2023-08-06T11:01:19;14.30;99.90
15900;DHT22;8048;50.644;6.184;2023-08-06T11:03:46;14.30;99.90
15900;DHT22;8048;50.644;6.184;2023-08-06T11:06:18;14.30;99.90
15900;DHT22;8048;50.644;6.184;2023-08-06T11:08:51;14.40;99.90
15900;DHT22;8048;50.644;6.184;2023-08-06T11:11:18;14.50;99.90
15900;DHT22;8048;50.644;6.184;2023-08-06T11:13:47;14.60;99.90
15900;DHT22;8048;50.644;6.184;2023-08-06T11:16:15;14.70;99.90
15900;DHT22;8048;50.644;6.184;2023-08-06T11:18:41;14.80;99.90
15900;DHT22;8048;50.644;6.184;2023-08-06T11:21:07;14.90;99.90
15900;DHT22;8048;50.644;6.184;2023-08-06T11:23:34;15.00;99.90
15900;DHT22;8048;50.644;6.184;2023-08-06T11:26:00;14.90;99.90
15900;DHT22;8048;50.644;6.184;2023-08-06T11:28:26;14.90;99.90
15900;DHT22;8048;50.644;6.184;2023-08-06T11:30:52;14.90;99.90
15900;DHT22;8048;50.644;6.184;2023-08-06T11:33:22;14.80;99.90
15900;DHT22;8048;50.644;6.184;2023-08-06T11:35:48;14.80;99.90
15900;DHT22;8048;50.644;6.184;2023-08-06T11:38:14;14.60;99.90
15900;DHT22;8048;50.644;6.184;2023-08-06T11:40:43;14.60;99.90
15900;DHT22;8048;50.644;6.184;2023-08-06T11:43:09;14.50;99.90
15900;DHT22;8048;50.644;6.184;2023-08-06T11:45:37;14.60;99.90
15900;DHT22;8048;50.644;6.184;2023-08-06T11:48:03;14.50;99.90
15900;DHT22;8048;50.644;6.184;2023-08-06T11:50:28;14.40;99.90
15900;DHT22;8048;50.644;6.184;2023-08-06T11:53:00;14.40;99.90
15900;DHT22;8048;50.644;6.184;2023-08-06T11:55:27;14.40;99.90
15900;DHT22;8048;50.644;6.184;2023-08-06T11:57:54;14.30;99.90
15900;DHT22;8048;50.644;6.184;2023-08-06T12:00:19;14.40;99.90
15900;DHT22;8048;50.644;6.184;2023-08-06T12:02:48;14.30;99.90
15900;DHT22;8048;50.644;6.184;2023-08-06T12:05:19;14.30;99.90
15900;DHT22;8048;50.644;6.184;2023-08-06T12:07:56;14.30;99.90
15900;DHT22;8048;50.644;6.184;2023-08-06T12:10:24;14.30;99.90
15900;DHT22;8048;50.644;6.184;2023-08-06T12:12:50;14.30;99.90
15900;DHT22;8048;50.644;6.184;2023-08-06T12:15:16;14.30;99.90
15900;DHT22;8048;50.644;6.184;2023-08-06T12:17:42;14.30;99.90
15900;DHT22;8048;50.644;6.184;2023-08-06T12:20:08;14.10;99.90
15900;DHT22;8048;50.644;6.184;2023-08-06T12:22:35;14.00;99.90
15900;DHT22;8048;50.644;6.184;2023-08-06T12:25:02;14.00;99.90
15900;DHT22;8048;50.644;6.184;2023-08-06T12:27:48;14.00;99.90
15900;DHT22;8048;50.644;6.184;2023-08-06T12:30:13;14.00;99.90
15900;DHT22;8048;50.644;6.184;2023-08-06T12:32:39;14.10;99.90
15900;DHT22;8048;50.644;6.184;2023-08-06T12:35:05;14.10;99.90
15900;DHT22;8048;50.644;6.184;2023-08-06T12:37:32;14.00;99.90
15900;DHT22;8048;50.644;6.184;2023-08-06T12:39:58;14.00;99.90
15900;DHT22;8048;50.644;6.184;2023-08-06T12:42:23;14.00;99.90
15900;DHT22;8048;50.644;6.184;2023-08-06T12:44:49;14.10;99.90
15900;DHT22;8048;50.644;6.184;2023-08-06T12:47:16;14.10;99.90
15900;DHT22;8048;50.644;6.184;2023-08-06T12:49:41;14.00;99.90
15900;DHT22;8048;50.644;6.184;2023-08-06T12:52:07;14.00;99.90
15900;DHT22;8048;50.644;6.184;2023-08-06T12:54:34;14.10;99.90
15900;DHT22;8048;50.644;6.184;2023-08-06T12:57:02;14.20;99.90
15900;DHT22;8048;50.644;6.184;2023-08-06T12:59:28;14.20;99.90
15900;DHT22;8048;50.644;6.184;2023-08-06T13:01:54;14.30;99.90
15900;DHT22;8048;50.644;6.184;2023-08-06T13:04:19;14.40;99.90
15900;DHT22;8048;50.644;6.184;2023-08-06T13:06:44;14.40;99.90
15900;DHT22;8048;50.644;6.184;2023-08-06T13:09:10;14.40;99.90
15900;DHT22;8048;50.644;6.184;2023-08-06T13:11:36;14.30;99.90
15900;DHT22;8048;50.644;6.184;2023-08-06T13:14:11;14.30;99.90
15900;DHT22;8048;50.644;6.184;2023-08-06T13:16:38;14.30;99.90
15900;DHT22;8048;50.644;6.184;2023-08-06T13:19:05;14.30;99.90
15900;DHT22;8048;50.644;6.184;2023-08-06T13:24:06;14.30;99.90
15900;DHT22;8048;50.644;6.184;2023-08-06T13:26:32;14.30;99.90
15900;DHT22;8048;50.644;6.184;2023-08-06T13:28:59;14.30;99.90
15900;DHT22;8048;50.644;6.184;2023-08-06T13:31:26;14.30;99.90
15900;DHT22;8048;50.644;6.184;2023-08-06T13:33:52;14.20;99.90
15900;DHT22;8048;50.644;6.184;2023-08-06T13:36:19;14.20;99.90
15900;DHT22;8048;50.644;6.184;2023-08-06T13:38:45;14.10;99.90
15900;DHT22;8048;50.644;6.184;2023-08-06T13:41:10;14.10;99.90
15900;DHT22;8048;50.644;6.184;2023-08-06T13:43:36;14.00;99.90
15900;DHT22;8048;50.644;6.184;2023-08-06T13:46:01;13.90;99.90
15900;DHT22;8048;50.644;6.184;2023-08-06T13:48:27;13.90;99.90
15900;DHT22;8048;50.644;6.184;2023-08-06T13:50:52;13.80;99.90
15900;DHT22;8048;50.644;6.184;2023-08-06T13:53:18;13.80;99.90
15900;DHT22;8048;50.644;6.184;2023-08-06T13:55:43;13.80;99.90
15900;DHT22;8048;50.644;6.184;2023-08-06T13:58:09;13.80;99.90
15900;DHT22;8048;50.644;6.184;2023-08-06T14:00:36;13.70;99.90
15900;DHT22;8048;50.644;6.184;2023-08-06T14:03:01;13.70;99.90
15900;DHT22;8048;50.644;6.184;2023-08-06T14:05:27;13.60;99.90
15900;DHT22;8048;50.644;6.184;2023-08-06T14:07:52;13.60;99.90
15900;DHT22;8048;50.644;6.184;2023-08-06T14:10:18;13.60;99.90
15900;DHT22;8048;50.644;6.184;2023-08-06T14:12:43;13.70;99.90
15900;DHT22;8048;50.644;6.184;2023-08-06T14:15:10;13.70;99.90
15900;DHT22;8048;50.644;6.184;2023-08-06T14:17:35;13.70;99.90
15900;DHT22;8048;50.644;6.184;2023-08-06T14:20:01;13.80;99.90
15900;DHT22;8048;50.644;6.184;2023-08-06T14:22:28;13.80;99.90
15900;DHT22;8048;50.644;6.184;2023-08-06T14:24:55;13.70;99.90
15900;DHT22;8048;50.644;6.184;2023-08-06T14:27:21;13.70;99.90
15900;DHT22;8048;50.644;6.184;2023-08-06T14:29:47;13.60;99.90
15900;DHT22;8048;50.644;6.184;2023-08-06T14:32:12;13.50;99.90
15900;DHT22;8048;50.644;6.184;2023-08-06T14:34:38;13.50;99.90
15900;DHT22;8048;50.644;6.184;2023-08-06T14:37:03;13.40;99.90
15900;DHT22;8048;50.644;6.184;2023-08-06T14:39:30;13.40;99.90
15900;DHT22;8048;50.644;6.184;2023-08-06T14:41:55;13.50;99.90
15900;DHT22;8048;50.644;6.184;2023-08-06T14:44:21;13.40;99.90
15900;DHT22;8048;50.644;6.184;2023-08-06T14:46:46;13.50;99.90
15900;DHT22;8048;50.644;6.184;2023-08-06T14:49:12;13.50;99.90
15900;DHT22;8048;50.644;6.184;2023-08-06T14:51:37;13.50;99.90
15900;DHT22;8048;50.644;6.184;2023-08-06T14:54:04;13.50;99.90
15900;DHT22;8048;50.644;6.184;2023-08-06T14:56:29;13.50;99.90
15900;DHT22;8048;50.644;6.184;2023-08-06T14:58:55;13.40;99.90
15900;DHT22;8048;50.644;6.184;2023-08-06T15:01:20;13.40;99.90
15900;DHT22;8048;50.644;6.184;2023-08-06T15:03:46;13.50;99.90
15900;DHT22;8048;50.644;6.184;2023-08-06T15:06:11;13.40;99.90
15900;DHT22;8048;50.644;6.184;2023-08-06T15:08:37;13.40;99.90
15900;DHT22;8048;50.644;6.184;2023-08-06T15:11:02;13.40;99.90
15900;DHT22;8048;50.644;6.184;2023-08-06T15:13:28;13.40;99.90
15900;DHT22;8048;50.644;6.184;2023-08-06T15:15:54;13.40;99.90
15900;DHT22;8048;50.644;6.184;2023-08-06T15:18:20;13.40;99.90
15900;DHT22;8048;50.644;6.184;2023-08-06T15:20:46;13.40;99.90
15900;DHT22;8048;50.644;6.184;2023-08-06T15:23:11;13.50;99.90
15900;DHT22;8048;50.644;6.184;2023-08-06T15:25:37;13.50;99.90
15900;DHT22;8048;50.644;6.184;2023-08-06T15:28:02;13.50;99.90
15900;DHT22;8048;50.644;6.184;2023-08-06T15:30:28;13.50;99.90
15900;DHT22;8048;50.644;6.184;2023-08-06T15:32:53;13.50;99.90
15900;DHT22;8048;50.644;6.184;2023-08-06T15:35:19;13.30;99.90
15900;DHT22;8048;50.644;6.184;2023-08-06T15:37:44;13.30;99.90
15900;DHT22;8048;50.644;6.184;2023-08-06T15:40:10;13.30;99.90
15900;DHT22;8048;50.644;6.184;2023-08-06T15:42:36;13.30;99.90
15900;DHT22;8048;50.644;6.184;2023-08-06T15:45:02;13.20;99.90
15900;DHT22;8048;50.644;6.184;2023-08-06T15:47:28;13.20;99.90
15900;DHT22;8048;50.644;6.184;2023-08-06T15:49:54;13.20;99.90